sensor_id;sensor_type;location;lat;lon;timestamp;P1;durP1;ratioP1;P2;durP2;ratioP2
44434;SDS011;30138;20.964;105.830;2023-07-13T00:03:00;0.90;;;0.90;;
44434;SDS011;30138;20.964;105.830;2023-07-13T00:08:09;1.10;;;1.02;;
44434;SDS011;30138;20.964;105.830;2023-07-13T00:13:16;0.90;;;0.90;;
44434;SDS011;30138;20.964;105.830;2023-07-13T00:18:23;1.13;;;1.00;;
44434;SDS011;30138;20.964;105.830;2023-07-13T00:23:33;1.90;;;0.80;;
44434;SDS011;30138;20.964;105.830;2023-07-13T00:28:41;0.90;;;0.90;;
44434;SDS011;30138;20.964;105.830;2023-07-13T00:33:48;1.35;;;0.98;;
44434;SDS011;30138;20.964;105.830;2023-07-13T00:38:56;0.82;;;0.82;;
44434;SDS011;30138;20.964;105.830;2023-07-13T00:44:02;1.77;;;1.20;;
44434;SDS011;30138;20.964;105.830;2023-07-13T00:49:13;1.05;;;0.90;;
44434;SDS011;30138;20.964;105.830;2023-07-13T00:54:25;1.98;;;1.23;;
44434;SDS011;30138;20.964;105.830;2023-07-13T00:59:34;1.20;;;1.10;;
44434;SDS011;30138;20.964;105.830;2023-07-13T01:04:42;1.30;;;1.20;;
44434;SDS011;30138;20.964;105.830;2023-07-13T01:09:52;1.30;;;1.17;;
44434;SDS011;30138;20.964;105.830;2023-07-13T01:14:58;4.18;;;1.17;;
44434;SDS011;30138;20.964;105.830;2023-07-13T01:25:25;1.50;;;1.30;;
44434;SDS011;30138;20.964;105.830;2023-07-13T01:30:31;3.67;;;2.00;;
44434;SDS011;30138;20.964;105.830;2023-07-13T01:35:40;6.03;;;3.38;;
44434;SDS011;30138;20.964;105.830;2023-07-13T01:40:49;5.22;;;3.03;;
44434;SDS011;30138;20.964;105.830;2023-07-13T01:45:55;5.50;;;2.88;;
44434;SDS011;30138;20.964;105.830;2023-07-13T01:51:02;4.85;;;2.95;;
44434;SDS011;30138;20.964;105.830;2023-07-13T01:56:10;3.88;;;3.13;;
44434;SDS011;30138;20.964;105.830;2023-07-13T02:01:17;4.57;;;3.00;;
44434;SDS011;30138;20.964;105.830;2023-07-13T02:06:24;6.43;;;3.13;;
44434;SDS011;30138;20.964;105.830;2023-07-13T02:11:33;6.65;;;3.10;;
44434;SDS011;30138;20.964;105.830;2023-07-13T02:16:39;4.22;;;2.95;;
44434;SDS011;30138;20.964;105.830;2023-07-13T02:21:46;7.15;;;3.58;;
44434;SDS011;30138;20.964;105.830;2023-07-13T02:26:54;4.72;;;3.03;;
44434;SDS011;30138;20.964;105.830;2023-07-13T02:32:01;4.20;;;3.13;;
44434;SDS011;30138;20.964;105.830;2023-07-13T02:37:08;3.67;;;2.95;;
44434;SDS011;30138;20.964;105.830;2023-07-13T02:42:17;5.75;;;2.80;;
44434;SDS011;30138;20.964;105.830;2023-07-13T02:47:24;4.35;;;2.95;;
44434;SDS011;30138;20.964;105.830;2023-07-13T02:52:32;7.32;;;3.15;;
44434;SDS011;30138;20.964;105.830;2023-07-13T02:57:40;6.63;;;3.20;;
44434;SDS011;30138;20.964;105.830;2023-07-13T03:02:48;6.00;;;3.17;;
44434;SDS011;30138;20.964;105.830;2023-07-13T03:07:58;5.03;;;3.60;;
44434;SDS011;30138;20.964;105.830;2023-07-13T03:13:08;5.20;;;3.42;;
44434;SDS011;30138;20.964;105.830;2023-07-13T03:18:14;5.75;;;3.85;;
44434;SDS011;30138;20.964;105.830;2023-07-13T03:23:25;5.68;;;3.22;;
44434;SDS011;30138;20.964;105.830;2023-07-13T03:28:34;7.82;;;3.60;;
44434;SDS011;30138;20.964;105.830;2023-07-13T03:33:42;5.72;;;3.33;;
44434;SDS011;30138;20.964;105.830;2023-07-13T03:38:51;6.45;;;3.72;;
44434;SDS011;30138;20.964;105.830;2023-07-13T03:44:08;4.95;;;3.55;;
44434;SDS011;30138;20.964;105.830;2023-07-13T03:49:14;5.22;;;3.70;;
44434;SDS011;30138;20.964;105.830;2023-07-13T03:54:22;4.70;;;3.53;;
44434;SDS011;30138;20.964;105.830;2023-07-13T03:59:30;7.18;;;4.15;;
44434;SDS011;30138;20.964;105.830;2023-07-13T04:04:37;6.82;;;3.58;;
44434;SDS011;30138;20.964;105.830;2023-07-13T04:09:43;6.88;;;3.50;;
44434;SDS011;30138;20.964;105.830;2023-07-13T04:14:51;5.30;;;3.78;;
44434;SDS011;30138;20.964;105.830;2023-07-13T04:19:58;7.38;;;3.90;;
44434;SDS011;30138;20.964;105.830;2023-07-13T04:25:06;8.35;;;3.78;;
44434;SDS011;30138;20.964;105.830;2023-07-13T04:30:14;6.93;;;3.92;;
44434;SDS011;30138;20.964;105.830;2023-07-13T04:35:21;5.10;;;3.30;;
44434;SDS011;30138;20.964;105.830;2023-07-13T04:40:28;5.97;;;3.60;;
44434;SDS011;30138;20.964;105.830;2023-07-13T04:45:37;5.43;;;3.47;;
44434;SDS011;30138;20.964;105.830;2023-07-13T04:50:43;5.63;;;4.18;;
44434;SDS011;30138;20.964;105.830;2023-07-13T04:55:51;6.30;;;3.97;;
44434;SDS011;30138;20.964;105.830;2023-07-13T05:01:03;5.13;;;3.97;;
44434;SDS011;30138;20.964;105.830;2023-07-13T05:06:11;5.57;;;4.05;;
44434;SDS011;30138;20.964;105.830;2023-07-13T05:11:18;6.03;;;3.72;;
44434;SDS011;30138;20.964;105.830;2023-07-13T05:16:27;6.40;;;3.45;;
44434;SDS011;30138;20.964;105.830;2023-07-13T05:21:33;7.10;;;4.03;;
44434;SDS011;30138;20.964;105.830;2023-07-13T05:26:40;4.65;;;3.72;;
44434;SDS011;30138;20.964;105.830;2023-07-13T05:31:48;4.88;;;3.42;;
44434;SDS011;30138;20.964;105.830;2023-07-13T05:36:54;5.80;;;3.75;;
44434;SDS011;30138;20.964;105.830;2023-07-13T05:42:01;5.00;;;3.53;;
44434;SDS011;30138;20.964;105.830;2023-07-13T05:47:10;5.22;;;3.53;;
44434;SDS011;30138;20.964;105.830;2023-07-13T05:52:17;5.68;;;3.95;;
44434;SDS011;30138;20.964;105.830;2023-07-13T05:57:23;5.72;;;3.95;;
44434;SDS011;30138;20.964;105.830;2023-07-13T06:02:32;5.35;;;3.60;;
44434;SDS011;30138;20.964;105.830;2023-07-13T06:07:39;6.55;;;3.65;;
44434;SDS011;30138;20.964;105.830;2023-07-13T06:12:46;4.85;;;3.65;;
44434;SDS011;30138;20.964;105.830;2023-07-13T06:17:55;6.85;;;3.90;;
44434;SDS011;30138;20.964;105.830;2023-07-13T06:23:02;6.60;;;4.00;;
44434;SDS011;30138;20.964;105.830;2023-07-13T06:28:09;4.63;;;3.85;;
44434;SDS011;30138;20.964;105.830;2023-07-13T06:33:17;5.18;;;3.58;;
44434;SDS011;30138;20.964;105.830;2023-07-13T06:38:23;4.88;;;3.63;;
44434;SDS011;30138;20.964;105.830;2023-07-13T06:43:30;7.68;;;3.65;;
44434;SDS011;30138;20.964;105.830;2023-07-13T06:48:38;5.72;;;3.90;;
44434;SDS011;30138;20.964;105.830;2023-07-13T06:53:45;6.03;;;3.30;;
44434;SDS011;30138;20.964;105.830;2023-07-13T06:58:55;5.50;;;3.65;;
44434;SDS011;30138;20.964;105.830;2023-07-13T07:04:03;4.88;;;3.67;;
44434;SDS011;30138;20.964;105.830;2023-07-13T07:09:10;5.45;;;3.60;;
44434;SDS011;30138;20.964;105.830;2023-07-13T07:14:18;4.57;;;3.72;;
44434;SDS011;30138;20.964;105.830;2023-07-13T07:19:27;5.63;;;3.63;;
44434;SDS011;30138;20.964;105.830;2023-07-13T07:24:35;4.72;;;3.75;;
44434;SDS011;30138;20.964;105.830;2023-07-13T07:29:42;4.43;;;3.50;;
44434;SDS011;30138;20.964;105.830;2023-07-13T07:34:50;4.68;;;3.92;;
44434;SDS011;30138;20.964;105.830;2023-07-13T07:39:56;4.97;;;3.50;;
44434;SDS011;30138;20.964;105.830;2023-07-13T07:45:04;4.65;;;3.75;;
44434;SDS011;30138;20.964;105.830;2023-07-13T07:50:14;4.65;;;3.55;;
44434;SDS011;30138;20.964;105.830;2023-07-13T07:55:21;4.70;;;3.40;;
44434;SDS011;30138;20.964;105.830;2023-07-13T08:00:31;5.63;;;3.85;;
44434;SDS011;30138;20.964;105.830;2023-07-13T08:05:40;4.97;;;3.80;;
44434;SDS011;30138;20.964;105.830;2023-07-13T08:10:47;4.82;;;3.63;;
44434;SDS011;30138;20.964;105.830;2023-07-13T08:15:54;6.07;;;3.90;;
44434;SDS011;30138;20.964;105.830;2023-07-13T08:21:04;4.10;;;3.42;;
44434;SDS011;30138;20.964;105.830;2023-07-13T08:26:12;5.18;;;3.60;;
44434;SDS011;30138;20.964;105.830;2023-07-13T08:31:19;4.47;;;3.63;;
44434;SDS011;30138;20.964;105.830;2023-07-13T08:36:27;4.30;;;3.50;;
44434;SDS011;30138;20.964;105.830;2023-07-13T08:41:34;4.20;;;3.33;;
44434;SDS011;30138;20.964;105.830;2023-07-13T08:46:41;4.43;;;3.42;;
44434;SDS011;30138;20.964;105.830;2023-07-13T08:51:52;4.10;;;3.67;;
44434;SDS011;30138;20.964;105.830;2023-07-13T08:57:10;4.47;;;3.38;;
44434;SDS011;30138;20.964;105.830;2023-07-13T09:02:22;3.92;;;3.50;;
44434;SDS011;30138;20.964;105.830;2023-07-13T09:20:25;3.58;;;3.17;;
44434;SDS011;30138;20.964;105.830;2023-07-13T09:25:36;3.70;;;3.30;;
44434;SDS011;30138;20.964;105.830;2023-07-13T09:30:49;4.00;;;3.13;;
44434;SDS011;30138;20.964;105.830;2023-07-13T09:36:00;4.28;;;3.33;;
44434;SDS011;30138;20.964;105.830;2023-07-13T09:41:31;4.20;;;3.20;;
44434;SDS011;30138;20.964;105.830;2023-07-13T09:47:29;4.32;;;3.40;;
44434;SDS011;30138;20.964;105.830;2023-07-13T09:52:48;4.85;;;3.50;;
44434;SDS011;30138;20.964;105.830;2023-07-13T10:10:13;5.22;;;3.60;;
44434;SDS011;30138;20.964;105.830;2023-07-13T10:15:22;5.07;;;3.70;;
44434;SDS011;30138;20.964;105.830;2023-07-13T10:20:32;4.82;;;3.67;;
44434;SDS011;30138;20.964;105.830;2023-07-13T10:25:45;4.72;;;3.67;;
44434;SDS011;30138;20.964;105.830;2023-07-13T10:31:17;3.75;;;3.22;;
44434;SDS011;30138;20.964;105.830;2023-07-13T10:36:30;4.00;;;3.60;;
44434;SDS011;30138;20.964;105.830;2023-07-13T10:41:42;3.95;;;3.35;;
44434;SDS011;30138;20.964;105.830;2023-07-13T10:46:54;3.80;;;3.13;;
44434;SDS011;30138;20.964;105.830;2023-07-13T10:52:05;4.37;;;3.50;;
44434;SDS011;30138;20.964;105.830;2023-07-13T10:57:59;4.55;;;3.53;;
44434;SDS011;30138;20.964;105.830;2023-07-13T11:03:10;5.88;;;3.50;;
44434;SDS011;30138;20.964;105.830;2023-07-13T11:08:32;3.90;;;3.50;;
44434;SDS011;30138;20.964;105.830;2023-07-13T11:19:24;4.00;;;3.60;;
44434;SDS011;30138;20.964;105.830;2023-07-13T11:24:54;4.78;;;3.53;;
44434;SDS011;30138;20.964;105.830;2023-07-13T11:30:08;4.22;;;3.60;;
44434;SDS011;30138;20.964;105.830;2023-07-13T11:35:35;4.97;;;3.40;;
44434;SDS011;30138;20.964;105.830;2023-07-13T11:40:47;4.07;;;3.63;;
44434;SDS011;30138;20.964;105.830;2023-07-13T11:45:57;3.97;;;3.38;;
44434;SDS011;30138;20.964;105.830;2023-07-13T11:51:18;3.50;;;3.20;;
44434;SDS011;30138;20.964;105.830;2023-07-13T11:56:29;4.13;;;3.50;;
44434;SDS011;30138;20.964;105.830;2023-07-13T12:01:36;4.05;;;3.65;;
44434;SDS011;30138;20.964;105.830;2023-07-13T12:07:04;4.90;;;3.47;;
44434;SDS011;30138;20.964;105.830;2023-07-13T12:12:27;4.55;;;3.55;;
44434;SDS011;30138;20.964;105.830;2023-07-13T12:17:34;4.78;;;3.88;;
44434;SDS011;30138;20.964;105.830;2023-07-13T12:22:41;4.05;;;3.45;;
44434;SDS011;30138;20.964;105.830;2023-07-13T12:27:54;4.75;;;3.63;;
44434;SDS011;30138;20.964;105.830;2023-07-13T12:33:01;4.53;;;3.90;;
44434;SDS011;30138;20.964;105.830;2023-07-13T12:38:12;5.68;;;4.07;;
44434;SDS011;30138;20.964;105.830;2023-07-13T12:43:21;4.88;;;4.00;;
44434;SDS011;30138;20.964;105.830;2023-07-13T12:48:38;4.30;;;3.45;;
44434;SDS011;30138;20.964;105.830;2023-07-13T12:53:47;6.28;;;4.10;;
44434;SDS011;30138;20.964;105.830;2023-07-13T12:59:14;4.25;;;3.85;;
44434;SDS011;30138;20.964;105.830;2023-07-13T13:04:24;4.45;;;3.65;;
44434;SDS011;30138;20.964;105.830;2023-07-13T13:09:30;4.43;;;3.90;;
44434;SDS011;30138;20.964;105.830;2023-07-13T13:14:39;4.55;;;3.83;;
44434;SDS011;30138;20.964;105.830;2023-07-13T13:19:45;5.28;;;4.18;;
44434;SDS011;30138;20.964;105.830;2023-07-13T13:24:55;5.82;;;4.32;;
44434;SDS011;30138;20.964;105.830;2023-07-13T13:30:04;5.15;;;3.67;;
44434;SDS011;30138;20.964;105.830;2023-07-13T13:35:37;4.57;;;3.70;;
44434;SDS011;30138;20.964;105.830;2023-07-13T13:40:44;5.40;;;3.97;;
44434;SDS011;30138;20.964;105.830;2023-07-13T13:45:55;5.97;;;4.43;;
44434;SDS011;30138;20.964;105.830;2023-07-13T13:51:11;5.85;;;4.20;;
44434;SDS011;30138;20.964;105.830;2023-07-13T13:56:20;5.32;;;3.80;;
44434;SDS011;30138;20.964;105.830;2023-07-13T14:01:29;7.43;;;4.18;;
44434;SDS011;30138;20.964;105.830;2023-07-13T14:06:36;4.68;;;4.18;;
44434;SDS011;30138;20.964;105.830;2023-07-13T14:11:43;5.22;;;4.50;;
44434;SDS011;30138;20.964;105.830;2023-07-13T14:16:53;5.43;;;4.10;;
44434;SDS011;30138;20.964;105.830;2023-07-13T14:22:03;6.40;;;4.32;;
44434;SDS011;30138;20.964;105.830;2023-07-13T14:27:11;5.80;;;4.30;;
44434;SDS011;30138;20.964;105.830;2023-07-13T14:32:19;5.30;;;4.15;;
44434;SDS011;30138;20.964;105.830;2023-07-13T14:37:25;5.95;;;4.28;;
44434;SDS011;30138;20.964;105.830;2023-07-13T14:42:31;5.82;;;4.80;;
44434;SDS011;30138;20.964;105.830;2023-07-13T14:47:40;5.40;;;4.60;;
44434;SDS011;30138;20.964;105.830;2023-07-13T14:52:47;5.35;;;4.68;;
44434;SDS011;30138;20.964;105.830;2023-07-13T14:57:57;5.75;;;4.43;;
44434;SDS011;30138;20.964;105.830;2023-07-13T15:03:06;5.47;;;4.28;;
44434;SDS011;30138;20.964;105.830;2023-07-13T15:08:24;5.50;;;4.60;;
44434;SDS011;30138;20.964;105.830;2023-07-13T15:13:31;7.78;;;4.60;;
44434;SDS011;30138;20.964;105.830;2023-07-13T15:18:40;9.73;;;6.50;;
44434;SDS011;30138;20.964;105.830;2023-07-13T15:23:47;15.07;;;8.40;;
44434;SDS011;30138;20.964;105.830;2023-07-13T15:28:55;13.38;;;7.75;;
44434;SDS011;30138;20.964;105.830;2023-07-13T15:34:09;13.48;;;8.10;;
44434;SDS011;30138;20.964;105.830;2023-07-13T15:39:19;12.65;;;7.35;;
44434;SDS011;30138;20.964;105.830;2023-07-13T15:44:26;13.23;;;7.25;;
44434;SDS011;30138;20.964;105.830;2023-07-13T15:49:36;11.35;;;7.03;;
44434;SDS011;30138;20.964;105.830;2023-07-13T15:54:44;9.95;;;6.78;;
44434;SDS011;30138;20.964;105.830;2023-07-13T15:59:51;10.50;;;7.40;;
44434;SDS011;30138;20.964;105.830;2023-07-13T16:04:59;9.45;;;7.22;;
44434;SDS011;30138;20.964;105.830;2023-07-13T16:10:07;11.13;;;6.70;;
44434;SDS011;30138;20.964;105.830;2023-07-13T16:15:19;9.25;;;6.75;;
44434;SDS011;30138;20.964;105.830;2023-07-13T16:20:28;8.95;;;6.32;;
44434;SDS011;30138;20.964;105.830;2023-07-13T16:25:34;19.92;;;9.40;;
44434;SDS011;30138;20.964;105.830;2023-07-13T16:30:41;16.77;;;8.45;;
44434;SDS011;30138;20.964;105.830;2023-07-13T16:35:49;11.48;;;7.60;;
44434;SDS011;30138;20.964;105.830;2023-07-13T16:40:56;13.93;;;6.95;;
44434;SDS011;30138;20.964;105.830;2023-07-13T16:46:06;10.48;;;7.15;;
44434;SDS011;30138;20.964;105.830;2023-07-13T16:51:19;10.98;;;6.43;;
44434;SDS011;30138;20.964;105.830;2023-07-13T16:56:25;10.13;;;6.60;;
44434;SDS011;30138;20.964;105.830;2023-07-13T17:01:31;10.50;;;6.68;;
44434;SDS011;30138;20.964;105.830;2023-07-13T17:06:40;10.68;;;6.50;;
44434;SDS011;30138;20.964;105.830;2023-07-13T17:11:48;8.38;;;5.78;;
44434;SDS011;30138;20.964;105.830;2023-07-13T17:16:55;8.82;;;5.60;;
44434;SDS011;30138;20.964;105.830;2023-07-13T17:22:04;8.23;;;5.85;;
44434;SDS011;30138;20.964;105.830;2023-07-13T17:27:19;9.88;;;5.82;;
44434;SDS011;30138;20.964;105.830;2023-07-13T17:32:26;7.97;;;5.40;;
44434;SDS011;30138;20.964;105.830;2023-07-13T17:37:34;8.93;;;5.47;;
44434;SDS011;30138;20.964;105.830;2023-07-13T17:42:41;8.55;;;5.28;;
44434;SDS011;30138;20.964;105.830;2023-07-13T17:47:49;8.93;;;5.60;;
44434;SDS011;30138;20.964;105.830;2023-07-13T17:52:57;7.85;;;5.45;;
44434;SDS011;30138;20.964;105.830;2023-07-13T17:58:04;7.95;;;5.07;;
44434;SDS011;30138;20.964;105.830;2023-07-13T18:03:11;8.10;;;5.35;;
44434;SDS011;30138;20.964;105.830;2023-07-13T18:08:23;9.00;;;4.72;;
44434;SDS011;30138;20.964;105.830;2023-07-13T18:13:31;8.35;;;5.00;;
44434;SDS011;30138;20.964;105.830;2023-07-13T18:18:41;6.13;;;4.68;;
44434;SDS011;30138;20.964;105.830;2023-07-13T18:23:50;7.35;;;4.60;;
44434;SDS011;30138;20.964;105.830;2023-07-13T18:28:57;7.72;;;5.13;;
44434;SDS011;30138;20.964;105.830;2023-07-13T18:34:07;8.38;;;4.80;;
44434;SDS011;30138;20.964;105.830;2023-07-13T18:39:17;6.20;;;4.50;;
44434;SDS011;30138;20.964;105.830;2023-07-13T18:44:25;6.15;;;3.85;;
44434;SDS011;30138;20.964;105.830;2023-07-13T18:49:32;6.68;;;4.22;;
44434;SDS011;30138;20.964;105.830;2023-07-13T18:54:40;4.93;;;3.88;;
44434;SDS011;30138;20.964;105.830;2023-07-13T18:59:47;5.97;;;3.78;;
44434;SDS011;30138;20.964;105.830;2023-07-13T19:04:53;7.18;;;4.07;;
44434;SDS011;30138;20.964;105.830;2023-07-13T19:10:03;4.53;;;3.67;;
44434;SDS011;30138;20.964;105.830;2023-07-13T19:15:17;5.55;;;3.90;;
44434;SDS011;30138;20.964;105.830;2023-07-13T19:20:25;5.65;;;3.90;;
44434;SDS011;30138;20.964;105.830;2023-07-13T19:25:35;5.88;;;3.92;;
44434;SDS011;30138;20.964;105.830;2023-07-13T19:30:42;4.82;;;3.65;;
44434;SDS011;30138;20.964;105.830;2023-07-13T19:35:48;6.90;;;3.83;;
44434;SDS011;30138;20.964;105.830;2023-07-13T19:40:57;5.20;;;3.72;;
44434;SDS011;30138;20.964;105.830;2023-07-13T19:46:03;5.97;;;3.80;;
44434;SDS011;30138;20.964;105.830;2023-07-13T19:51:12;4.50;;;3.50;;
44434;SDS011;30138;20.964;105.830;2023-07-13T19:56:24;4.45;;;3.47;;
44434;SDS011;30138;20.964;105.830;2023-07-13T20:01:30;4.50;;;3.35;;
44434;SDS011;30138;20.964;105.830;2023-07-13T20:06:37;5.53;;;3.22;;
44434;SDS011;30138;20.964;105.830;2023-07-13T20:11:46;5.10;;;3.70;;
44434;SDS011;30138;20.964;105.830;2023-07-13T20:16:56;4.13;;;3.40;;
44434;SDS011;30138;20.964;105.830;2023-07-13T20:22:07;6.68;;;3.50;;
44434;SDS011;30138;20.964;105.830;2023-07-13T20:32:23;5.65;;;3.50;;
44434;SDS011;30138;20.964;105.830;2023-07-13T20:37:37;6.32;;;3.30;;
44434;SDS011;30138;20.964;105.830;2023-07-13T20:47:51;3.78;;;3.08;;
44434;SDS011;30138;20.964;105.830;2023-07-13T20:52:58;4.55;;;3.38;;
44434;SDS011;30138;20.964;105.830;2023-07-13T20:58:07;4.07;;;3.08;;
44434;SDS011;30138;20.964;105.830;2023-07-13T21:03:16;3.75;;;2.92;;
44434;SDS011;30138;20.964;105.830;2023-07-13T21:08:26;4.32;;;3.00;;
44434;SDS011;30138;20.964;105.830;2023-07-13T21:13:34;4.78;;;3.20;;
44434;SDS011;30138;20.964;105.830;2023-07-13T21:18:41;4.15;;;3.38;;
44434;SDS011;30138;20.964;105.830;2023-07-13T21:23:48;4.32;;;3.17;;
44434;SDS011;30138;20.964;105.830;2023-07-13T21:29:00;4.80;;;3.00;;
44434;SDS011;30138;20.964;105.830;2023-07-13T21:34:07;3.75;;;3.00;;
44434;SDS011;30138;20.964;105.830;2023-07-13T21:39:24;4.30;;;2.97;;
44434;SDS011;30138;20.964;105.830;2023-07-13T21:44:33;3.80;;;2.97;;
44434;SDS011;30138;20.964;105.830;2023-07-13T21:49:40;3.53;;;2.85;;
44434;SDS011;30138;20.964;105.830;2023-07-13T21:54:46;3.40;;;2.60;;
44434;SDS011;30138;20.964;105.830;2023-07-13T21:59:57;3.55;;;2.85;;
44434;SDS011;30138;20.964;105.830;2023-07-13T22:05:15;4.43;;;3.10;;
44434;SDS011;30138;20.964;105.830;2023-07-13T22:10:23;3.63;;;2.83;;
44434;SDS011;30138;20.964;105.830;2023-07-13T22:15:31;4.43;;;2.47;;
44434;SDS011;30138;20.964;105.830;2023-07-13T22:20:38;3.63;;;2.78;;
44434;SDS011;30138;20.964;105.830;2023-07-13T22:25:45;4.07;;;2.88;;
44434;SDS011;30138;20.964;105.830;2023-07-13T22:30:54;3.08;;;2.72;;
44434;SDS011;30138;20.964;105.830;2023-07-13T22:36:01;3.38;;;2.50;;
44434;SDS011;30138;20.964;105.830;2023-07-13T22:41:08;3.17;;;2.75;;
44434;SDS011;30138;20.964;105.830;2023-07-13T22:46:19;3.38;;;2.63;;
44434;SDS011;30138;20.964;105.830;2023-07-13T22:51:30;2.92;;;2.38;;
44434;SDS011;30138;20.964;105.830;2023-07-13T22:56:37;3.67;;;2.90;;
44434;SDS011;30138;20.964;105.830;2023-07-13T23:01:45;2.72;;;2.33;;
44434;SDS011;30138;20.964;105.830;2023-07-13T23:06:52;2.88;;;2.38;;
44434;SDS011;30138;20.964;105.830;2023-07-13T23:11:59;2.92;;;2.30;;
44434;SDS011;30138;20.964;105.830;2023-07-13T23:17:11;4.13;;;2.65;;
44434;SDS011;30138;20.964;105.830;2023-07-13T23:22:19;3.45;;;2.70;;
44434;SDS011;30138;20.964;105.830;2023-07-13T23:27:31;2.67;;;2.30;;
44434;SDS011;30138;20.964;105.830;2023-07-13T23:32:39;2.75;;;2.17;;
44434;SDS011;30138;20.964;105.830;2023-07-13T23:37:46;2.38;;;2.17;;
44434;SDS011;30138;20.964;105.830;2023-07-13T23:42:52;2.42;;;2.10;;
44434;SDS011;30138;20.964;105.830;2023-07-13T23:48:00;4.22;;;2.60;;
44434;SDS011;30138;20.964;105.830;2023-07-13T23:53:09;3.60;;;2.60;;
44434;SDS011;30138;20.964;105.830;2023-07-13T23:58:17;3.63;;;2.15;;
